createdAt,value
2022-09-21T00:00:40.447Z,89.07
2022-09-21T00:03:07.214Z,89.05
2022-09-21T00:05:34.217Z,88.98
2022-09-21T00:08:04.596Z,88.99
2022-09-21T00:10:31.298Z,88.83
2022-09-21T00:12:58.138Z,88.65
2022-09-21T00:15:24.963Z,88.65
2022-09-21T00:17:54.932Z,88.60
2022-09-21T00:20:21.792Z,88.33
2022-09-21T00:22:48.517Z,88.05
2022-09-21T00:25:15.276Z,88.08
2022-09-21T00:27:41.966Z,88.35
2022-09-21T00:30:09.237Z,88.15
2022-09-21T00:32:36.787Z,88.00
2022-09-21T00:35:03.982Z,88.04
2022-09-21T00:37:30.561Z,88.58
2022-09-21T00:39:57.170Z,88.36
2022-09-21T00:42:26.343Z,88.21
2022-09-21T00:44:52.936Z,88.22
2022-09-21T00:47:33.339Z,87.75
2022-09-21T00:50:00.702Z,87.84
2022-09-21T00:52:27.293Z,87.95
2022-09-21T00:55:00.413Z,87.88
2022-09-21T00:57:27.805Z,87.97
2022-09-21T00:59:55.980Z,87.85
2022-09-21T01:02:22.779Z,87.61
2022-09-21T01:04:49.385Z,87.84
2022-09-21T01:07:18.523Z,87.82
2022-09-21T01:09:47.012Z,88.37
2022-09-21T01:12:41.505Z,88.40
2022-09-21T01:15:40.165Z,88.42
2022-09-21T01:18:21.270Z,88.56
2022-09-21T01:21:04.105Z,88.35
2022-09-21T01:23:46.001Z,88.46
2022-09-21T01:26:15.374Z,88.44
2022-09-21T01:29:11.978Z,88.42
2022-09-21T01:31:44.633Z,88.58
2022-09-21T01:34:43.058Z,88.30
2022-09-21T01:37:12.894Z,88.04
2022-09-21T01:39:39.474Z,88.47
2022-09-21T01:42:06.549Z,88.34
2022-09-21T01:44:33.673Z,88.34
2022-09-21T01:47:01.715Z,88.26
2022-09-21T01:49:31.781Z,88.62
2022-09-21T01:52:01.413Z,88.78
2022-09-21T01:54:30.749Z,88.40
2022-09-21T01:57:32.525Z,88.16
2022-09-21T02:00:00.095Z,88.95
2022-09-21T02:02:44.407Z,88.65
2022-09-21T02:05:11.440Z,88.67
2022-09-21T02:07:38.720Z,88.61
2022-09-21T02:10:08.277Z,88.37
2022-09-21T02:12:34.907Z,88.48
2022-09-21T02:15:01.804Z,88.65
2022-09-21T02:17:41.210Z,88.75
2022-09-21T02:20:36.604Z,88.54
2022-09-21T02:23:12.210Z,88.02
2022-09-21T02:25:51.292Z,88.37
2022-09-21T02:28:20.787Z,88.35
2022-09-21T02:30:53.701Z,88.38
2022-09-21T02:33:24.898Z,88.62
2022-09-21T02:35:55.693Z,88.60
2022-09-21T02:38:26.625Z,88.05
2022-09-21T02:40:56.749Z,88.34
2022-09-21T02:44:00.497Z,88.07
2022-09-21T02:46:31.967Z,88.21
2022-09-21T02:49:15.237Z,88.01
2022-09-21T02:51:51.362Z,88.04
2022-09-21T02:54:20.162Z,87.52
2022-09-21T02:56:48.842Z,87.97
2022-09-21T02:59:16.650Z,87.52
2022-09-21T03:01:43.348Z,87.89
2022-09-21T03:04:10.715Z,87.62
2022-09-21T03:06:37.274Z,87.56
2022-09-21T03:09:03.963Z,87.85
2022-09-21T03:11:30.612Z,88.08
2022-09-21T03:13:57.303Z,87.68
2022-09-21T03:16:24.650Z,87.75
2022-09-21T03:18:51.423Z,87.41
2022-09-21T03:21:18.197Z,87.24
2022-09-21T03:23:44.760Z,87.42
2022-09-21T03:26:11.339Z,87.74
2022-09-21T03:28:37.967Z,87.27
2022-09-21T03:31:06.021Z,87.45
2022-09-21T03:33:32.767Z,87.70
2022-09-21T03:35:59.485Z,87.59
2022-09-21T03:38:26.934Z,87.52
2022-09-21T03:40:57.859Z,87.66
2022-09-21T03:43:24.512Z,87.69
2022-09-21T03:45:51.310Z,87.42
2022-09-21T03:48:17.912Z,87.40
2022-09-21T03:50:44.556Z,87.71
2022-09-21T03:53:18.333Z,87.35
2022-09-21T03:55:44.970Z,87.50
2022-09-21T03:58:11.523Z,87.64
2022-09-21T04:00:39.229Z,87.84
2022-09-21T04:03:05.781Z,87.48
2022-09-21T04:05:32.506Z,87.76
2022-09-21T04:08:02.066Z,87.61
2022-09-21T04:10:32.845Z,87.63
2022-09-21T04:13:01.325Z,87.44
2022-09-21T04:15:28.115Z,87.40
2022-09-21T04:17:54.782Z,87.66
2022-09-21T04:20:21.483Z,87.54
2022-09-21T04:22:48.113Z,87.61
2022-09-21T04:25:15.037Z,87.42
2022-09-21T04:27:41.709Z,87.75
2022-09-21T04:30:09.107Z,87.89
2022-09-21T04:32:35.672Z,87.60
2022-09-21T04:35:02.213Z,87.86
2022-09-21T04:37:28.773Z,87.91
2022-09-21T04:39:55.931Z,88.20
2022-09-21T04:42:23.341Z,87.96
2022-09-21T04:44:49.929Z,87.36
2022-09-21T04:47:16.497Z,87.67
2022-09-21T04:49:43.097Z,88.15
2022-09-21T04:52:09.657Z,87.76
2022-09-21T04:54:36.221Z,87.76
2022-09-21T04:57:02.855Z,87.70
2022-09-21T04:59:29.423Z,87.90
2022-09-21T05:01:56.069Z,87.86
2022-09-21T05:04:22.619Z,88.08
2022-09-21T05:06:49.219Z,88.21
2022-09-21T05:09:34.878Z,88.06
2022-09-21T05:12:03.051Z,88.07
2022-09-21T05:14:29.768Z,87.90
2022-09-21T05:16:56.392Z,87.87
2022-09-21T05:19:23.811Z,87.90
2022-09-21T05:21:50.374Z,87.92
2022-09-21T05:24:16.989Z,87.84
2022-09-21T05:26:43.602Z,88.20
2022-09-21T05:29:10.391Z,88.09
2022-09-21T05:31:48.825Z,88.09
2022-09-21T05:34:30.169Z,87.95
2022-09-21T05:37:21.929Z,88.25
2022-09-21T05:39:48.734Z,88.01
2022-09-21T05:42:15.505Z,87.99
2022-09-21T05:44:42.453Z,88.17
2022-09-21T05:47:20.516Z,88.37
2022-09-21T05:50:02.434Z,88.10
2022-09-21T05:52:39.368Z,88.07
2022-09-21T05:55:35.191Z,88.21
2022-09-21T05:58:18.258Z,88.00
2022-09-21T06:01:09.377Z,87.76
2022-09-21T06:03:36.364Z,88.18
2022-09-21T06:06:03.079Z,87.89
2022-09-21T06:08:29.671Z,87.97
2022-09-21T06:10:56.398Z,87.59
2022-09-21T06:13:22.947Z,87.61
2022-09-21T06:15:49.552Z,88.01
2022-09-21T06:18:18.149Z,88.03
2022-09-21T06:20:45.248Z,87.15
2022-09-21T06:23:12.746Z,85.63
2022-09-21T06:25:39.385Z,85.66
2022-09-21T06:28:07.116Z,85.71
2022-09-21T06:30:34.823Z,85.32
2022-09-21T06:33:01.978Z,84.79
2022-09-21T06:35:29.099Z,84.97
2022-09-21T06:38:02.888Z,85.15
2022-09-21T06:40:29.711Z,85.65
2022-09-21T06:43:00.074Z,85.36
2022-09-21T06:45:27.185Z,85.12
2022-09-21T06:47:53.727Z,85.67
2022-09-21T06:50:20.329Z,85.24
2022-09-21T06:52:46.972Z,85.26
2022-09-21T06:55:13.766Z,85.40
2022-09-21T06:57:40.596Z,85.98
2022-09-21T07:00:09.190Z,86.48
2022-09-21T07:02:35.790Z,86.85
2022-09-21T07:05:02.469Z,86.25
2022-09-21T07:07:32.059Z,86.13
2022-09-21T07:10:07.422Z,86.38
2022-09-21T07:12:35.387Z,85.82
2022-09-21T07:15:08.161Z,85.72
2022-09-21T07:17:38.140Z,85.17
2022-09-21T07:20:06.890Z,85.31
2022-09-21T07:22:33.567Z,85.15
2022-09-21T07:25:00.188Z,85.47
2022-09-21T07:27:27.686Z,85.97
2022-09-21T07:29:54.227Z,85.84
2022-09-21T07:32:21.215Z,86.56
2022-09-21T07:34:48.399Z,85.88
2022-09-21T07:37:15.254Z,85.19
2022-09-21T07:39:41.893Z,85.34
2022-09-21T07:42:08.473Z,85.58
2022-09-21T07:44:35.065Z,83.98
2022-09-21T07:47:03.407Z,84.05
2022-09-21T07:49:30.064Z,84.23
2022-09-21T07:52:01.419Z,84.30
2022-09-21T07:54:30.377Z,83.42
2022-09-21T07:57:15.449Z,82.67
2022-09-21T07:59:42.029Z,81.66
2022-09-21T08:02:08.876Z,80.82
2022-09-21T08:04:35.662Z,80.79
2022-09-21T08:07:02.400Z,80.99
2022-09-21T08:09:28.986Z,80.78
2022-09-21T08:11:56.072Z,80.79
2022-09-21T08:14:26.255Z,81.07
2022-09-21T08:16:53.465Z,80.48
2022-09-21T08:19:20.616Z,80.63
2022-09-21T08:21:56.259Z,79.18
2022-09-21T08:24:25.583Z,79.56
2022-09-21T08:26:52.875Z,79.47
2022-09-21T08:29:19.700Z,78.59
2022-09-21T08:31:46.905Z,77.29
2022-09-21T08:34:14.462Z,77.75
2022-09-21T08:36:41.189Z,76.90
2022-09-21T08:39:08.396Z,76.25
2022-09-21T08:41:53.136Z,75.40
2022-09-21T08:44:25.022Z,74.13
2022-09-21T08:47:13.944Z,74.20
2022-09-21T08:49:41.268Z,72.67
2022-09-21T08:52:16.248Z,71.85
2022-09-21T08:54:57.129Z,71.66
2022-09-21T08:57:29.522Z,72.51
2022-09-21T08:59:56.209Z,73.15
2022-09-21T09:03:00.911Z,73.48
2022-09-21T09:05:55.480Z,74.21
2022-09-21T09:08:21.965Z,74.11
2022-09-21T09:10:55.428Z,74.23
2022-09-21T09:13:43.766Z,75.42
2022-09-21T09:16:39.629Z,76.84
2022-09-21T09:19:18.052Z,75.71
2022-09-21T09:21:44.642Z,77.22
2022-09-21T09:24:15.834Z,77.75
2022-09-21T09:26:52.836Z,78.97
2022-09-21T09:29:26.618Z,79.49
2022-09-21T09:31:54.854Z,79.80
2022-09-21T09:34:28.965Z,80.37
2022-09-21T09:37:00.480Z,80.56
2022-09-21T09:39:29.151Z,79.93
2022-09-21T09:42:26.648Z,79.89
2022-09-21T09:45:05.485Z,77.56
2022-09-21T09:47:44.534Z,77.91
2022-09-21T09:50:13.342Z,76.10
2022-09-21T09:52:40.339Z,77.14
2022-09-21T09:55:21.988Z,77.62
2022-09-21T09:57:49.134Z,76.83
2022-09-21T10:00:17.903Z,76.30
2022-09-21T10:02:56.438Z,76.76
2022-09-21T10:05:24.045Z,77.33
2022-09-21T10:07:50.824Z,77.72
2022-09-21T10:10:29.668Z,79.21
2022-09-21T10:13:35.070Z,77.02
2022-09-21T10:16:12.637Z,76.48
2022-09-21T10:18:46.361Z,75.69
2022-09-21T10:21:27.102Z,76.18
2022-09-21T10:24:21.816Z,75.43
2022-09-21T10:26:50.527Z,74.89
2022-09-21T10:29:23.048Z,75.17
2022-09-21T10:31:56.832Z,72.11
2022-09-21T10:34:23.433Z,73.71
2022-09-21T10:36:52.037Z,72.44
2022-09-21T10:39:38.804Z,70.67
2022-09-21T10:42:16.391Z,70.79
2022-09-21T10:44:44.834Z,71.71
2022-09-21T10:47:40.451Z,72.94
2022-09-21T10:50:43.807Z,73.65
2022-09-21T10:53:10.336Z,72.41
2022-09-21T10:55:44.082Z,73.85
2022-09-21T10:58:19.552Z,73.42
2022-09-21T11:00:51.869Z,75.05
2022-09-21T11:03:30.550Z,74.85
2022-09-21T11:05:59.947Z,75.04
2022-09-21T11:08:41.364Z,74.87
2022-09-21T11:11:36.465Z,71.26
2022-09-21T11:14:21.301Z,70.27
2022-09-21T11:16:56.790Z,71.39
2022-09-21T11:19:33.842Z,69.89
2022-09-21T11:22:19.071Z,69.49
2022-09-21T11:24:52.195Z,69.34
2022-09-21T11:27:32.218Z,70.51
2022-09-21T11:30:03.215Z,71.35
2022-09-21T11:33:12.020Z,73.41
2022-09-21T11:35:58.195Z,74.23
2022-09-21T11:38:58.588Z,73.66
2022-09-21T11:41:44.172Z,74.94
2022-09-21T11:44:40.937Z,74.95
2022-09-21T11:47:36.966Z,73.84
2022-09-21T11:50:30.520Z,73.09
2022-09-21T11:53:54.274Z,74.84
2022-09-21T11:56:44.242Z,74.54
2022-09-21T11:59:26.664Z,74.32
2022-09-21T12:01:56.131Z,74.53
2022-09-21T12:04:31.613Z,74.74
2022-09-21T12:07:13.753Z,75.42
2022-09-21T12:09:47.900Z,74.17
2022-09-21T12:12:25.547Z,72.93
2022-09-21T12:15:11.420Z,72.58
2022-09-21T12:17:50.253Z,71.40
2022-09-21T12:20:35.463Z,72.11
2022-09-21T12:23:04.704Z,73.13
2022-09-21T12:25:37.416Z,73.29
2022-09-21T12:28:22.910Z,73.61
2022-09-21T12:30:53.905Z,74.35
2022-09-21T12:33:26.450Z,74.04
2022-09-21T12:36:14.903Z,74.70
2022-09-21T12:38:48.817Z,74.37
2022-09-21T12:41:55.647Z,74.41
2022-09-21T12:44:52.269Z,74.77
2022-09-21T12:47:31.099Z,75.18
2022-09-21T12:50:02.589Z,76.22
2022-09-21T12:52:29.216Z,76.54
2022-09-21T12:54:58.598Z,77.02
2022-09-21T12:58:14.146Z,77.85
2022-09-21T13:00:42.729Z,77.63
2022-09-21T13:03:38.043Z,77.75
2022-09-21T13:06:12.454Z,76.65
2022-09-21T13:08:41.045Z,76.29
2022-09-21T13:11:10.548Z,73.03
2022-09-21T13:13:44.783Z,74.31
2022-09-21T13:16:51.474Z,73.36
2022-09-21T13:19:23.061Z,71.36
2022-09-21T13:22:19.830Z,71.18
2022-09-21T13:25:15.425Z,71.83
2022-09-21T13:28:26.727Z,72.38
2022-09-21T13:31:13.785Z,74.56
2022-09-21T13:34:06.481Z,75.18
2022-09-21T13:36:35.367Z,72.57
2022-09-21T13:39:14.105Z,72.25
2022-09-21T13:42:01.850Z,72.73
2022-09-21T13:44:42.013Z,73.28
2022-09-21T13:47:09.378Z,72.57
2022-09-21T13:49:50.869Z,73.44
2022-09-21T13:52:17.462Z,73.62
2022-09-21T13:54:52.674Z,74.36
2022-09-21T13:57:19.440Z,75.13
2022-09-21T13:59:57.375Z,75.33
2022-09-21T14:02:30.570Z,75.18
2022-09-21T14:04:57.318Z,74.99
2022-09-21T14:07:24.346Z,75.57
2022-09-21T14:09:55.379Z,74.65
2022-09-21T14:12:25.200Z,74.72
2022-09-21T14:15:12.583Z,74.20
2022-09-21T14:17:42.801Z,73.77
2022-09-21T14:20:34.644Z,74.07
2022-09-21T14:23:19.311Z,73.40
2022-09-21T14:25:59.141Z,73.19
2022-09-21T14:28:35.417Z,74.99
2022-09-21T14:31:34.735Z,75.85
2022-09-21T14:34:03.077Z,75.97
2022-09-21T14:36:38.374Z,77.21
2022-09-21T14:39:05.820Z,77.51
2022-09-21T14:41:39.214Z,78.18
2022-09-21T14:44:05.874Z,78.26
2022-09-21T14:46:54.775Z,78.35
2022-09-21T14:49:40.301Z,78.25
2022-09-21T14:52:13.458Z,77.61
2022-09-21T14:55:35.235Z,77.98
2022-09-21T14:58:42.921Z,77.25
2022-09-21T15:01:20.594Z,77.54
2022-09-21T15:03:48.302Z,78.59
2022-09-21T15:07:02.264Z,79.58
2022-09-21T15:09:56.532Z,78.63
2022-09-21T15:12:51.979Z,79.10
2022-09-21T15:15:57.465Z,79.53
2022-09-21T15:18:25.757Z,78.81
2022-09-21T15:21:01.563Z,77.52
2022-09-21T15:23:30.041Z,78.16
2022-09-21T15:26:02.700Z,78.28
2022-09-21T15:28:57.904Z,77.35
2022-09-21T15:31:22.231Z,76.95
2022-09-21T15:33:48.946Z,76.72
2022-09-21T15:36:28.896Z,76.81
2022-09-21T15:38:59.726Z,77.02
2022-09-21T15:41:42.575Z,75.40
2022-09-21T15:44:15.022Z,75.03
2022-09-21T15:46:43.249Z,76.40
2022-09-21T15:49:15.349Z,76.47
2022-09-21T15:51:45.246Z,76.59
2022-09-21T15:54:22.402Z,76.97
2022-09-21T15:56:49.072Z,78.12
2022-09-21T15:59:20.827Z,78.49
2022-09-21T16:01:49.338Z,78.27
2022-09-21T16:04:23.579Z,77.67
2022-09-21T16:07:02.982Z,77.34
2022-09-21T16:09:37.289Z,77.45
2022-09-21T16:12:25.916Z,77.19
2022-09-21T16:14:57.963Z,79.55
2022-09-21T16:17:28.659Z,79.66
2022-09-21T16:19:55.121Z,79.80
2022-09-21T16:23:00.127Z,79.85
2022-09-21T16:25:30.133Z,79.55
2022-09-21T16:27:58.371Z,79.10
2022-09-21T16:30:53.254Z,79.14
2022-09-21T16:33:38.016Z,78.86
2022-09-21T16:36:33.904Z,78.83
2022-09-21T16:39:01.188Z,78.97
2022-09-21T16:41:40.304Z,78.97
2022-09-21T16:44:12.974Z,78.79
2022-09-21T16:46:43.100Z,79.30
2022-09-21T16:49:16.845Z,79.39
2022-09-21T16:51:43.404Z,79.20
2022-09-21T16:54:09.998Z,79.07
2022-09-21T16:56:36.634Z,79.40
2022-09-21T16:59:10.546Z,79.27
2022-09-21T17:01:37.299Z,79.76
2022-09-21T17:04:04.325Z,79.95
2022-09-21T17:06:30.975Z,79.54
2022-09-21T17:08:57.704Z,79.85
2022-09-21T17:11:24.298Z,80.46
2022-09-21T17:13:50.997Z,80.25
2022-09-21T17:16:18.816Z,80.40
2022-09-21T17:18:46.099Z,80.95
2022-09-21T17:21:12.951Z,80.78
2022-09-21T17:23:40.160Z,81.32
2022-09-21T17:26:17.694Z,81.60
2022-09-21T17:28:44.509Z,81.41
2022-09-21T17:31:16.589Z,81.69
2022-09-21T17:33:43.661Z,81.89
2022-09-21T17:36:13.603Z,81.93
2022-09-21T17:38:40.503Z,82.16
2022-09-21T17:41:09.741Z,82.65
2022-09-21T17:43:38.242Z,82.87
2022-09-21T17:46:16.381Z,83.16
2022-09-21T17:48:43.183Z,82.92
2022-09-21T17:51:10.521Z,83.03
2022-09-21T17:53:37.503Z,83.01
2022-09-21T17:56:13.185Z,82.92
2022-09-21T17:58:44.897Z,83.36
2022-09-21T18:01:14.489Z,82.61
2022-09-21T18:03:42.623Z,82.50
2022-09-21T18:06:10.029Z,82.77
2022-09-21T18:08:37.843Z,82.42
2022-09-21T18:11:36.327Z,82.38
2022-09-21T18:14:37.874Z,83.08
2022-09-21T18:17:59.381Z,82.35
2022-09-21T18:20:51.616Z,82.80
2022-09-21T18:23:39.510Z,83.14
2022-09-21T18:26:10.235Z,83.04
2022-09-21T18:28:40.831Z,82.77
2022-09-21T18:31:30.098Z,82.74
2022-09-21T18:34:02.651Z,83.03
2022-09-21T18:36:37.275Z,83.21
2022-09-21T18:39:15.121Z,83.00
2022-09-21T18:41:46.969Z,82.72
2022-09-21T18:45:00.634Z,83.33
2022-09-21T18:47:38.733Z,82.55
2022-09-21T18:50:31.934Z,82.03
2022-09-21T18:53:40.502Z,82.49
2022-09-21T18:56:11.862Z,82.51
2022-09-21T18:58:39.504Z,82.28
2022-09-21T19:01:06.800Z,82.93
2022-09-21T19:03:33.936Z,82.87
2022-09-21T19:06:00.514Z,83.71
2022-09-21T19:08:26.985Z,83.86
2022-09-21T19:11:38.443Z,83.81
2022-09-21T19:14:20.575Z,83.64
2022-09-21T19:17:00.214Z,83.40
2022-09-21T19:19:48.703Z,83.72
2022-09-21T19:22:21.084Z,84.06
2022-09-21T19:24:58.433Z,84.30
2022-09-21T19:27:33.041Z,85.16
2022-09-21T19:30:06.341Z,85.03
2022-09-21T19:32:38.946Z,85.39
2022-09-21T19:35:30.528Z,85.15
2022-09-21T19:37:58.499Z,85.18
2022-09-21T19:40:32.577Z,85.41
2022-09-21T19:43:05.000Z,85.27
2022-09-21T19:45:55.835Z,85.76
2022-09-21T19:48:23.061Z,86.33
2022-09-21T19:50:54.830Z,86.35
2022-09-21T19:53:40.490Z,86.37
2022-09-21T19:56:44.154Z,86.60
2022-09-21T19:59:29.274Z,86.00
2022-09-21T20:01:57.944Z,86.21
2022-09-21T20:04:47.204Z,86.07
2022-09-21T20:07:58.160Z,86.42
2022-09-21T20:10:42.543Z,85.87
2022-09-21T20:13:14.923Z,86.48
2022-09-21T20:15:48.282Z,85.97
2022-09-21T20:18:48.929Z,85.63
2022-09-21T20:21:18.883Z,85.55
2022-09-21T20:23:50.072Z,85.30
2022-09-21T20:26:23.940Z,85.24
2022-09-21T20:28:54.285Z,84.85
2022-09-21T20:31:25.106Z,84.72
2022-09-21T20:33:53.763Z,84.84
2022-09-21T20:36:20.366Z,84.59
2022-09-21T20:38:46.975Z,84.40
2022-09-21T20:41:15.888Z,84.28
2022-09-21T20:43:42.550Z,84.51
2022-09-21T20:46:10.126Z,84.73
2022-09-21T20:48:37.637Z,84.77
2022-09-21T20:51:07.082Z,85.28
2022-09-21T20:53:34.153Z,85.38
2022-09-21T20:56:03.641Z,85.38
2022-09-21T20:58:30.599Z,85.40
2022-09-21T21:01:03.129Z,86.04
2022-09-21T21:03:29.756Z,86.42
2022-09-21T21:06:08.010Z,86.86
2022-09-21T21:08:34.559Z,86.51
2022-09-21T21:11:01.124Z,87.02
2022-09-21T21:13:31.057Z,87.04
2022-09-21T21:15:57.649Z,87.21
2022-09-21T21:18:24.289Z,86.74
2022-09-21T21:20:52.347Z,86.56
2022-09-21T21:23:21.070Z,87.03
2022-09-21T21:25:48.009Z,86.95
2022-09-21T21:28:14.717Z,87.12
2022-09-21T21:30:41.306Z,87.24
2022-09-21T21:33:07.863Z,87.53
2022-09-21T21:35:37.669Z,87.56
2022-09-21T21:38:04.289Z,87.39
2022-09-21T21:40:30.960Z,87.72
2022-09-21T21:42:57.616Z,87.73
2022-09-21T21:45:24.256Z,88.18
2022-09-21T21:47:50.951Z,87.98
2022-09-21T21:50:17.543Z,87.90
2022-09-21T21:52:45.238Z,88.33
2022-09-21T21:55:11.943Z,88.52
2022-09-21T21:57:38.535Z,88.07
2022-09-21T22:00:06.164Z,88.46
2022-09-21T22:02:33.005Z,88.47
2022-09-21T22:04:59.693Z,88.08
2022-09-21T22:07:26.279Z,88.53
2022-09-21T22:09:55.598Z,88.50
2022-09-21T22:12:22.192Z,88.53
2022-09-21T22:14:49.501Z,88.46
2022-09-21T22:17:16.122Z,88.25
2022-09-21T22:19:42.999Z,88.18
2022-09-21T22:22:09.565Z,88.09
2022-09-21T22:24:36.222Z,88.27
2022-09-21T22:27:02.856Z,88.12
2022-09-21T22:29:29.434Z,88.49
2022-09-21T22:31:57.154Z,88.26
2022-09-21T22:34:23.789Z,88.25
2022-09-21T22:36:50.745Z,88.16
2022-09-21T22:39:17.309Z,88.41
2022-09-21T22:41:43.880Z,87.97
2022-09-21T22:44:10.849Z,88.25
2022-09-21T22:46:37.642Z,88.04
2022-09-21T22:49:04.377Z,87.95
2022-09-21T22:51:31.043Z,88.30
2022-09-21T22:53:57.962Z,87.95
2022-09-21T22:56:29.324Z,88.07
2022-09-21T22:58:58.012Z,88.32
2022-09-21T23:01:25.840Z,88.32
2022-09-21T23:03:57.513Z,88.27
2022-09-21T23:06:26.748Z,88.23
2022-09-21T23:08:54.959Z,87.95
2022-09-21T23:11:28.364Z,88.27
2022-09-21T23:13:55.473Z,88.01
2022-09-21T23:16:22.684Z,88.21
2022-09-21T23:18:49.552Z,87.54
2022-09-21T23:21:18.511Z,87.65
2022-09-21T23:23:45.193Z,88.13
2022-09-21T23:26:16.608Z,87.43
2022-09-21T23:28:44.814Z,87.97
2022-09-21T23:31:13.161Z,87.47
2022-09-21T23:33:44.903Z,87.86
2022-09-21T23:36:12.737Z,87.76
2022-09-21T23:38:39.965Z,87.53
2022-09-21T23:41:11.450Z,87.84
2022-09-21T23:43:38.858Z,87.38
2022-09-21T23:46:05.768Z,87.54
2022-09-21T23:48:32.344Z,87.76
2022-09-21T23:50:59.222Z,87.95
2022-09-21T23:53:26.415Z,87.48
2022-09-21T23:55:53.127Z,87.24
2022-09-21T23:58:19.948Z,87.11
